Time;durP1;ratioP1;P1;durP2;ratioP2;P2;SDS_P1;SDS_P2;PMS_P1;PMS_P2;Temp;Humidity;BMP_temperature;BMP_pressure;BME280_temperature;BME280_humidity;BME280_pressure;Samples;Min_cycle;Max_cycle;Signal;HPM_P1;HPM_P2
2021/12/29 09:21:23;;;;;;;23.07;14.70;;;;;;;7.59;100.00;100603.50;5288969;27;20361;-73
2021/12/29 09:23:54;;;;;;;20.20;14.07;;;;;;;7.67;100.00;100596.13;5289812;28;20597;-74
2021/12/29 09:26:25;;;;;;;15.67;14.03;;;;;;;7.75;100.00;100593.94;5286932;28;20433;-75
2021/12/29 09:28:57;;;;;;;18.20;13.73;;;;;;;7.83;100.00;100590.09;5289446;28;20027;-75
2021/12/29 09:31:28;;;;;;;16.53;13.13;;;;;;;7.87;100.00;100589.84;5289290;28;20036;-79
2021/12/29 09:34:00;;;;;;;15.50;12.60;;;;;;;7.93;100.00;100591.31;5287898;28;20107;-76
2021/12/29 09:36:32;;;;;;;18.63;12.77;;;;;;;7.97;100.00;100586.78;5288891;28;20111;-75
2021/12/29 09:39:04;;;;;;;17.23;12.27;;;;;;;8.06;100.00;100593.25;5288869;28;20024;-76
2021/12/29 09:41:36;;;;;;;14.23;10.97;;;;;;;8.14;100.00;100592.84;5286420;28;20386;-75
2021/12/29 09:44:09;;;;;;;12.07;10.60;;;;;;;8.42;100.00;100581.75;5288991;28;20025;-75
2021/12/29 09:46:41;;;;;;;12.80;9.60;;;;;;;8.68;100.00;100597.78;5287587;28;20394;-77
2021/12/29 09:49:12;;;;;;;14.10;9.63;;;;;;;8.71;100.00;100594.13;5288903;28;20028;-77
2021/12/29 09:51:43;;;;;;;11.90;8.27;;;;;;;8.60;100.00;100584.31;5287024;28;20024;-76
2021/12/29 09:54:15;;;;;;;16.23;9.33;;;;;;;8.54;100.00;100568.94;5293820;28;20031;-77
2021/12/29 09:56:46;;;;;;;11.57;8.60;;;;;;;8.53;100.00;100568.13;5288551;28;20097;-74
2021/12/29 09:59:18;;;;;;;13.47;8.57;;;;;;;8.51;100.00;100576.94;5287317;28;20467;-75
2021/12/29 10:01:50;;;;;;;11.77;7.97;;;;;;;8.53;100.00;100577.72;5288757;28;20016;-76
2021/12/29 10:04:21;;;;;;;13.27;8.43;;;;;;;8.52;100.00;100574.25;5287913;28;20081;-75
2021/12/29 10:06:52;;;;;;;12.90;7.87;;;;;;;8.57;100.00;100582.69;5287018;28;20035;-77
2021/12/29 10:09:25;;;;;;;13.37;7.73;;;;;;;8.60;100.00;100586.91;5287229;28;20032;-77
2021/12/29 10:12:06;;;;;;;12.10;8.03;;;;;;;8.65;100.00;100597.94;5281885;28;20489;-78
2021/12/29 10:14:38;;;;;;;12.07;7.33;;;;;;;8.67;100.00;100593.50;5286954;28;20020;-77
2021/12/29 10:17:11;;;;;;;10.40;6.53;;;;;;;8.68;100.00;100591.69;5288141;28;20161;-78
2021/12/29 10:19:43;;;;;;;15.80;7.63;;;;;;;8.61;100.00;100588.59;5286694;28;20048;-81
2021/12/29 10:22:22;;;;;;;9.77;7.53;;;;;;;8.69;100.00;100583.78;5294449;28;20078;-74
2021/12/29 10:25:04;;;;;;;9.17;6.17;;;;;;;8.75;100.00;100581.75;5297585;28;20016;-85
2021/12/29 10:27:37;;;;;;;10.30;6.37;;;;;;;8.79;100.00;100572.81;5289838;28;20021;-81
2021/12/29 10:30:24;;;;;;;12.37;6.30;;;;;;;8.78;100.00;100560.72;5287050;28;20507;-81
2021/12/29 10:32:58;;;;;;;10.50;5.90;;;;;;;8.73;100.00;100565.34;5275113;28;20020;-91
2021/12/29 10:35:32;;;;;;;9.25;5.35;;;;;;;8.76;100.00;100554.72;5275269;28;20028;-91
2021/12/29 10:38:20;;;;;;;13.43;5.95;;;;;;;8.76;100.00;100547.72;5274084;28;20021;-85
2021/12/29 10:41:02;;;;;;;11.90;6.10;;;;;;;8.73;100.00;100552.28;5267592;28;20125;-85
2021/12/29 10:43:33;;;;;;;13.33;6.10;;;;;;;8.75;100.00;100553.88;5263101;28;21147;-85
2021/12/29 10:46:05;;;;;;;11.47;6.07;;;;;;;8.72;100.00;100551.44;5254323;28;20033;-85
2021/12/29 10:48:46;;;;;;;13.50;5.13;;;;;;;8.77;100.00;100553.78;5261271;28;20526;-89
2021/12/29 10:51:19;;;;;;;13.33;6.33;;;;;;;8.76;100.00;100546.88;5264115;28;20052;-89
2021/12/29 10:53:50;;;;;;;9.70;5.73;;;;;;;8.83;100.00;100548.22;5257817;28;20109;-89
2021/12/29 10:56:24;;;;;;;12.43;4.53;;;;;;;8.81;100.00;100544.84;5273982;28;20107;-90
2021/12/29 10:58:55;;;;;;;15.60;6.10;;;;;;;8.88;100.00;100554.03;5261870;28;20020;-86
2021/12/29 11:01:26;;;;;;;10.33;5.10;;;;;;;8.73;100.00;100541.84;5265915;28;20286;-87
2021/12/29 11:03:58;;;;;;;9.93;5.40;;;;;;;8.79;100.00;100568.44;5264585;28;20036;-88
2021/12/29 11:06:29;;;;;;;12.20;5.20;;;;;;;8.83;100.00;100577.78;5267960;28;20028;-87
2021/12/29 11:09:02;;;;;;;11.50;5.23;;;;;;;8.70;100.00;100564.59;5265041;28;20519;-86
2021/12/29 11:11:42;;;;;;;12.87;5.53;;;;;;;8.77;100.00;100569.44;5270114;28;20177;-93
2021/12/29 11:14:17;;;;;;;12.33;5.47;;;;;;;8.75;100.00;100566.09;5276196;28;20033;-78
2021/12/29 11:16:59;;;;;;;10.37;4.10;;;;;;;8.79;100.00;100554.53;5272223;28;20029;-80
2021/12/29 11:19:31;;;;;;;12.13;4.60;;;;;;;8.82;100.00;100570.88;5272307;28;20243;-80
2021/12/29 11:22:15;;;;;;;10.10;4.73;;;;;;;8.87;100.00;100575.84;5271942;28;20023;-81
2021/12/29 11:24:54;;;;;;;9.70;4.90;;;;;;;8.82;100.00;100555.22;5272440;28;20025;-75
2021/12/29 11:27:28;;;;;;;8.93;3.97;;;;;;;8.79;100.00;100549.31;5271277;28;20029;-79
2021/12/29 11:30:03;;;;;;;15.30;5.28;;;;;;;8.71;100.00;100550.59;5275736;28;20024;-78
2021/12/29 11:32:40;;;;;;;13.03;5.47;;;;;;;8.76;100.00;100536.44;5273717;28;20045;-76
2021/12/29 11:35:15;;;;;;;15.43;5.63;;;;;;;8.71;100.00;100519.25;5272131;28;20487;-74
2021/12/29 11:37:55;;;;;;;19.17;5.73;;;;;;;8.67;100.00;100522.16;5271273;28;20028;-75
2021/12/29 11:40:31;;;;;;;14.00;5.37;;;;;;;8.64;100.00;100538.81;5270405;28;20020;-76
2021/12/29 11:43:02;;;;;;;14.00;5.97;;;;;;;8.73;100.00;100526.19;5269302;28;20028;-78
2021/12/29 11:45:36;;;;;;;17.67;6.63;;;;;;;8.76;100.00;100526.00;5271478;28;20483;-75
2021/12/29 11:48:10;;;;;;;11.67;5.93;;;;;;;8.76;100.00;100516.38;5269502;28;20099;-76
2021/12/29 11:50:53;;;;;;;25.70;7.30;;;;;;;8.78;100.00;100534.59;5270575;28;21286;-77
2021/12/29 11:53:38;;;;;;;15.73;6.80;;;;;;;8.85;100.00;100527.25;5267308;28;20289;-74
2021/12/29 11:56:19;;;;;;;17.37;6.27;;;;;;;8.81;100.00;100527.41;5268595;28;20124;-74
2021/12/29 11:58:50;;;;;;;14.13;6.57;;;;;;;8.83;100.00;100535.16;5266280;28;20035;-75
2021/12/29 12:01:25;;;;;;;17.00;6.40;;;;;;;8.78;100.00;100522.34;5269970;28;20040;-74
2021/12/29 12:04:03;;;;;;;12.43;5.53;;;;;;;8.77;100.00;100538.13;5269660;28;20040;-74
2021/12/29 12:06:43;;;;;;;12.07;6.33;;;;;;;8.83;100.00;100548.22;5268988;28;20055;-73
2021/12/29 12:09:22;;;;;;;19.00;6.83;;;;;;;8.82;100.00;100541.31;5268803;28;20237;-72
2021/12/29 12:12:00;;;;;;;13.67;4.80;;;;;;;8.81;100.00;100526.56;5267430;28;20032;-73
2021/12/29 12:14:43;;;;;;;14.30;6.50;;;;;;;8.83;100.00;100524.72;5267706;28;20086;-75
2021/12/29 12:17:23;;;;;;;14.40;5.37;;;;;;;8.78;100.00;100513.72;5268682;28;20115;-74
2021/12/29 12:20:14;;;;;;;14.53;5.50;;;;;;;8.65;100.00;100490.91;5268764;28;20564;-75
2021/12/29 12:22:51;;;;;;;13.47;5.93;;;;;;;8.70;100.00;100507.16;5273104;28;20031;-77
2021/12/29 12:25:29;;;;;;;13.47;6.07;;;;;;;8.67;100.00;100496.03;5272063;28;20124;-78
2021/12/29 12:28:02;;;;;;;16.43;5.90;;;;;;;8.57;100.00;100495.72;5270219;28;20013;-79
2021/12/29 12:30:38;;;;;;;15.50;6.97;;;;;;;8.69;100.00;100474.13;5268690;28;20395;-75
2021/12/29 12:33:17;;;;;;;17.93;6.30;;;;;;;8.69;100.00;100468.91;5267696;28;20532;-79
2021/12/29 12:35:51;;;;;;;15.27;5.33;;;;;;;8.70;100.00;100465.38;5269111;28;20025;-83
2021/12/29 12:38:27;;;;;;;15.40;6.70;;;;;;;8.74;100.00;100483.47;5268262;28;20032;-82
2021/12/29 12:41:06;;;;;;;14.57;6.23;;;;;;;8.69;100.00;100478.53;5267577;28;20036;-79
2021/12/29 12:43:53;;;;;;;14.73;6.07;;;;;;;8.68;100.00;100477.66;5269443;28;20609;-76
2021/12/29 12:46:47;;;;;;;13.30;5.97;;;;;;;8.66;100.00;100468.22;5285556;28;20103;-76
2021/12/29 12:49:20;;;;;;;14.17;5.47;;;;;;;8.61;100.00;100462.44;5269279;28;20089;-78
2021/12/29 12:52:03;;;;;;;15.37;5.47;;;;;;;8.72;100.00;100460.06;5270962;28;20471;-76
2021/12/29 12:54:42;;;;;;;12.00;6.37;;;;;;;8.75;100.00;100451.19;5269021;28;20108;-76
2021/12/29 12:57:26;;;;;;;15.07;6.43;;;;;;;8.76;100.00;100442.44;5269429;28;20099;-74
2021/12/29 13:00:14;;;;;;;12.00;5.10;;;;;;;8.76;100.00;100455.50;5268251;28;20028;-74
2021/12/29 13:02:56;;;;;;;13.67;6.20;;;;;;;8.73;100.00;100437.41;5270421;28;20028;-72
2021/12/29 13:05:28;;;;;;;15.40;5.30;;;;;;;8.74;100.00;100439.06;5274447;28;20090;-72
2021/12/29 13:08:13;;;;;;;26.77;7.20;;;;;;;8.76;100.00;100445.06;5268581;28;20556;-72
2021/12/29 13:11:00;;;;;;;19.55;5.55;;;;;;;8.81;100.00;100437.78;5269904;28;20726;-71
2021/12/29 13:13:34;;;;;;;19.13;8.30;;;;;;;8.64;100.00;100437.00;5267148;28;20017;-70
2021/12/29 13:16:14;;;;;;;12.10;4.85;;;;;;;8.74;100.00;100446.91;5266595;28;20394;-70
2021/12/29 13:18:46;;;;;;;22.93;6.93;;;;;;;8.75;100.00;100441.59;5273752;28;20020;-74
2021/12/29 13:21:25;;;;;;;19.50;5.57;;;;;;;8.71;100.00;100422.66;5272161;28;20044;-69
2021/12/29 13:23:59;;;;;;;14.53;6.30;;;;;;;8.76;100.00;100432.00;5270732;28;20103;-70
2021/12/29 13:26:36;;;;;;;16.17;7.15;;;;;;;8.78;100.00;100419.69;5268140;28;20035;-73
2021/12/29 13:29:15;;;;;;;17.63;6.73;;;;;;;8.70;100.00;100418.38;5274996;28;20490;-75
2021/12/29 13:31:47;;;;;;;19.03;8.63;;;;;;;8.66;100.00;100410.78;5266902;28;20054;-74
2021/12/29 13:34:18;;;;;;;19.23;7.97;;;;;;;8.76;100.00;100401.50;5268535;28;20578;-75
2021/12/29 13:36:50;;;;;;;16.57;6.63;;;;;;;8.76;100.00;100390.22;5269586;28;20021;-73
2021/12/29 13:39:21;;;;;;;14.80;7.43;;;;;;;8.63;100.00;100385.72;5271066;28;20067;-73
2021/12/29 13:41:52;;;;;;;12.77;5.63;;;;;;;8.80;100.00;100397.78;5269175;28;20056;-70
2021/12/29 13:44:25;;;;;;;16.10;6.00;;;;;;;8.75;100.00;100378.94;5270118;28;20464;-72
2021/12/29 13:46:56;;;;;;;13.50;5.27;;;;;;;8.78;100.00;100372.69;5270676;28;20097;-71
2021/12/29 13:49:27;;;;;;;15.33;6.67;;;;;;;8.73;100.00;100367.75;5270782;28;20601;-78
2021/12/29 13:51:58;;;;;;;14.07;6.00;;;;;;;8.68;100.00;100373.25;5268866;28;20024;-72
2021/12/29 13:54:30;;;;;;;10.17;4.97;;;;;;;8.79;100.00;100369.16;5270236;28;20035;-72
2021/12/29 13:57:01;;;;;;;9.53;5.60;;;;;;;8.73;100.00;100374.75;5268580;28;20021;-76
2021/12/29 13:59:33;;;;;;;14.73;5.47;;;;;;;8.74;100.00;100373.81;5268128;28;20124;-72
2021/12/29 14:02:06;;;;;;;14.20;5.23;;;;;;;8.77;100.00;100369.25;5271782;28;20111;-75
2021/12/29 14:04:43;;;;;;;13.73;5.57;;;;;;;8.68;100.00;100352.34;5272719;28;20047;-73
2021/12/29 14:07:17;;;;;;;14.23;5.40;;;;;;;8.78;100.00;100370.09;5271779;28;20039;-72
2021/12/29 14:09:57;;;;;;;14.40;5.43;;;;;;;8.74;100.00;100363.38;5272284;28;20012;-73
2021/12/29 14:12:33;;;;;;;16.73;6.47;;;;;;;8.66;100.00;100354.22;5273948;28;20099;-74
2021/12/29 14:15:13;;;;;;;9.83;5.00;;;;;;;8.75;100.00;100341.53;5273818;28;20038;-78
2021/12/29 14:17:45;;;;;;;16.87;6.03;;;;;;;8.66;100.00;100349.00;5274385;28;20016;-74
2021/12/29 14:20:17;;;;;;;13.40;5.27;;;;;;;8.61;100.00;100356.25;5272538;28;20048;-76
2021/12/29 14:22:48;;;;;;;9.80;4.83;;;;;;;8.66;100.00;100349.00;5273658;28;20043;-76
2021/12/29 14:25:19;;;;;;;11.73;6.20;;;;;;;8.59;100.00;100338.09;5271510;28;20097;-77
2021/12/29 14:27:55;;;;;;;11.70;6.27;;;;;;;8.69;100.00;100334.94;5273301;28;20452;-87
2021/12/29 14:30:26;;;;;;;12.33;5.37;;;;;;;8.77;100.00;100337.06;5270378;28;20379;-78
2021/12/29 14:33:03;;;;;;;11.93;4.97;;;;;;;8.84;100.00;100338.38;5270484;28;20021;-77
2021/12/29 14:35:34;;;;;;;9.67;4.60;;;;;;;8.81;100.00;100341.19;5260394;28;20442;-74
2021/12/29 14:38:09;;;;;;;11.20;4.77;;;;;;;8.76;100.00;100336.22;5273252;28;20035;-81
2021/12/29 14:40:41;;;;;;;12.97;5.33;;;;;;;8.77;100.00;100331.84;5272415;28;20487;-81
2021/12/29 14:43:15;;;;;;;9.00;4.20;;;;;;;8.78;100.00;100318.69;5271779;28;20107;-87
2021/12/29 14:45:54;;;;;;;8.93;4.50;;;;;;;8.83;100.00;100313.22;5273678;28;20051;-78
2021/12/29 14:48:26;;;;;;;10.33;4.80;;;;;;;8.80;100.00;100324.66;5273122;28;20036;-78
2021/12/29 14:50:58;;;;;;;13.10;4.80;;;;;;;8.80;100.00;100321.19;5269817;28;20044;-80
2021/12/29 14:53:30;;;;;;;7.23;3.80;;;;;;;8.81;100.00;100330.72;5272579;28;20035;-84
2021/12/29 14:56:17;;;;;;;19.50;9.60;;;;;;;8.82;100.00;100322.81;5270904;28;20479;-77
2021/12/29 14:58:49;;;;;;;9.60;5.23;;;;;;;8.79;100.00;100319.53;5268314;28;20123;-75
2021/12/29 15:01:27;;;;;;;10.87;4.30;;;;;;;8.80;100.00;100329.88;5261764;28;20031;-81
2021/12/29 15:03:59;;;;;;;11.40;6.30;;;;;;;8.82;100.00;100327.19;5272640;28;20093;-84
2021/12/29 15:06:36;;;;;;;9.40;6.13;;;;;;;8.80;100.00;100339.47;5271365;28;20025;-80
2021/12/29 15:09:12;;;;;;;8.47;3.50;;;;;;;8.87;100.00;100345.16;5273277;28;20039;-77
2021/12/29 15:11:46;;;;;;;8.87;4.20;;;;;;;8.76;100.00;100338.00;5271627;28;20028;-79
2021/12/29 15:14:20;;;;;;;6.97;3.78;;;;;;;8.86;100.00;100339.13;5271406;28;20052;-78
2021/12/29 15:16:54;;;;;;;7.70;3.88;;;;;;;8.82;100.00;100327.19;5271217;28;20024;-76
2021/12/29 15:19:26;;;;;;;8.10;3.20;;;;;;;8.77;100.00;100310.94;5268150;28;20036;-81
2021/12/29 15:21:57;;;;;;;7.73;3.70;;;;;;;8.86;100.00;100322.63;5272213;28;20021;-79
2021/12/29 15:24:29;;;;;;;5.23;3.40;;;;;;;8.91;100.00;100324.00;5270677;28;20501;-79
2021/12/29 15:27:00;;;;;;;7.03;3.77;;;;;;;8.90;100.00;100327.53;5272009;28;20032;-77
2021/12/29 15:29:32;;;;;;;6.40;3.50;;;;;;;8.79;100.00;100303.88;5268951;28;20078;-80
2021/12/29 15:32:03;;;;;;;5.77;3.80;;;;;;;8.97;100.00;100327.19;5276598;28;20013;-74
2021/12/29 15:34:35;;;;;;;6.57;4.07;;;;;;;8.92;100.00;100320.47;5269492;28;20027;-75
2021/12/29 15:37:06;;;;;;;5.43;3.60;;;;;;;8.92;100.00;100319.63;5272393;28;20016;-78
2021/12/29 15:39:38;;;;;;;5.43;3.80;;;;;;;8.86;100.00;100306.94;5275164;28;20134;-76
2021/12/29 15:42:09;;;;;;;6.37;3.40;;;;;;;9.03;100.00;100313.72;5272395;28;20032;-77
2021/12/29 15:44:42;;;;;;;5.07;4.00;;;;;;;8.98;100.00;100327.09;5270840;28;20093;-80
2021/12/29 15:47:13;;;;;;;6.27;3.30;;;;;;;9.09;100.00;100329.03;5273461;28;20035;-77
2021/12/29 15:49:45;;;;;;;5.60;4.20;;;;;;;9.08;100.00;100324.75;5274705;28;20040;-73
2021/12/29 15:52:16;;;;;;;5.03;3.57;;;;;;;9.05;100.00;100328.41;5271536;28;20057;-71
2021/12/29 15:54:48;;;;;;;4.87;3.93;;;;;;;9.10;100.00;100335.94;5270384;28;20024;-70
2021/12/29 15:57:20;;;;;;;3.80;3.23;;;;;;;9.12;100.00;100334.06;5272285;28;20356;-74
2021/12/29 15:59:52;;;;;;;4.70;3.20;;;;;;;9.17;100.00;100339.84;5270635;28;20029;-74
2021/12/29 16:02:23;;;;;;;4.60;3.87;;;;;;;9.15;100.00;100331.25;5270885;28;20027;-75
2021/12/29 16:04:54;;;;;;;3.93;3.50;;;;;;;9.22;100.00;100325.66;5272784;28;20032;-75
2021/12/29 16:07:26;;;;;;;4.50;3.40;;;;;;;9.19;100.00;100324.94;5272267;28;20032;-79
2021/12/29 16:09:57;;;;;;;4.33;3.50;;;;;;;9.20;100.00;100320.50;5270974;28;20029;-78
2021/12/29 16:12:30;;;;;;;4.13;3.30;;;;;;;9.28;100.00;100333.13;5270611;28;20120;-79
2021/12/29 16:15:02;;;;;;;5.23;4.00;;;;;;;9.25;100.00;100323.69;5272346;28;20539;-77
2021/12/29 16:17:33;;;;;;;4.97;4.47;;;;;;;9.26;100.00;100324.53;5271864;28;20638;-86
2021/12/29 16:20:06;;;;;;;4.90;4.40;;;;;;;9.27;100.00;100334.03;5271061;28;20052;-80
2021/12/29 16:22:38;;;;;;;5.30;4.20;;;;;;;9.25;100.00;100322.88;5271591;28;20028;-83
2021/12/29 16:25:11;;;;;;;5.43;4.93;;;;;;;9.35;100.00;100341.41;5271159;28;20107;-80
2021/12/29 16:27:43;;;;;;;5.37;4.80;;;;;;;9.35;100.00;100329.19;5269681;28;20028;-83
2021/12/29 16:30:17;;;;;;;6.73;5.13;;;;;;;9.43;100.00;100331.31;5270308;28;20085;-73
2021/12/29 16:32:50;;;;;;;6.37;5.27;;;;;;;9.46;100.00;100332.91;5270352;28;20115;-71
2021/12/29 16:35:22;;;;;;;7.97;5.83;;;;;;;9.41;100.00;100336.63;5270300;28;20055;-75
2021/12/29 16:37:53;;;;;;;6.20;5.70;;;;;;;9.49;100.00;100338.78;5271180;28;20063;-71
2021/12/29 16:40:25;;;;;;;6.73;5.90;;;;;;;9.52;100.00;100338.56;5270394;28;20398;-72
2021/12/29 16:42:57;;;;;;;7.20;6.50;;;;;;;9.53;100.00;100335.00;5271302;28;20035;-70
2021/12/29 16:45:28;;;;;;;8.17;7.47;;;;;;;9.53;100.00;100329.78;5269499;28;20126;-74
2021/12/29 16:47:59;;;;;;;8.40;7.60;;;;;;;9.64;100.00;100338.72;5270167;28;20032;-74
2021/12/29 16:50:31;;;;;;;9.07;8.23;;;;;;;9.72;100.00;100341.66;5270586;28;20035;-70
2021/12/29 16:53:02;;;;;;;9.70;8.50;;;;;;;9.72;100.00;100338.22;5271194;28;20545;-69
2021/12/29 16:55:39;;;;;;;10.03;9.03;;;;;;;9.70;100.00;100332.25;5270189;28;20041;-85
2021/12/29 16:58:10;;;;;;;8.93;8.07;;;;;;;9.74;100.00;100339.78;5266335;28;20033;-84
2021/12/29 17:00:42;;;;;;;11.60;10.40;;;;;;;9.67;100.00;100341.97;5262648;28;20027;-75
2021/12/29 17:03:13;;;;;;;11.37;10.23;;;;;;;9.74;100.00;100368.56;5265487;28;20785;-85
2021/12/29 17:05:46;;;;;;;12.87;11.63;;;;;;;9.78;100.00;100374.44;5268913;28;20070;-78
2021/12/29 17:08:17;;;;;;;13.03;11.83;;;;;;;9.89;100.00;100373.75;5269922;28;20074;-76
2021/12/29 17:10:49;;;;;;;14.47;13.07;;;;;;;9.88;100.00;100366.84;5269958;28;20025;-76
2021/12/29 17:13:20;;;;;;;14.00;12.80;;;;;;;9.76;100.00;100358.00;5268855;28;20039;-84
2021/12/29 17:15:52;;;;;;;16.07;14.47;;;;;;;9.86;100.00;100359.06;5270123;28;20108;-86
2021/12/29 17:18:23;;;;;;;16.67;15.13;;;;;;;9.91;100.00;100374.50;5269729;28;20028;-82
2021/12/29 17:20:55;;;;;;;17.90;16.17;;;;;;;9.83;100.00;100358.47;5272596;28;20055;-85
2021/12/29 17:23:26;;;;;;;20.07;18.07;;;;;;;9.98;100.00;100367.94;5270097;28;20471;-85
2021/12/29 17:25:58;;;;;;;20.40;18.47;;;;;;;9.97;100.00;100349.69;5256198;28;20071;-74
2021/12/29 17:28:30;;;;;;;21.00;18.80;;;;;;;10.05;100.00;100360.53;5264715;28;20027;-76
2021/12/29 17:31:03;;;;;;;20.87;18.87;;;;;;;10.10;100.00;100366.28;5269653;28;20021;-79
2021/12/29 17:33:34;;;;;;;21.67;19.47;;;;;;;10.09;100.00;100374.25;5268288;28;20036;-83
2021/12/29 17:36:06;;;;;;;23.40;21.17;;;;;;;10.13;100.00;100375.69;5270750;28;20024;-85
2021/12/29 17:38:37;;;;;;;29.97;26.80;;;;;;;10.13;100.00;100360.84;5266279;28;20407;-75
2021/12/29 17:41:08;;;;;;;26.60;23.87;;;;;;;10.14;100.00;100348.63;5269668;28;20041;-77
2021/12/29 17:43:40;;;;;;;25.93;23.33;;;;;;;10.17;100.00;100348.41;5271927;28;20434;-78
2021/12/29 17:46:11;;;;;;;27.70;24.93;;;;;;;10.21;100.00;100351.66;5270723;28;20039;-85
2021/12/29 17:48:43;;;;;;;27.47;24.73;;;;;;;10.20;100.00;100357.81;5274044;28;20047;-82
2021/12/29 17:51:15;;;;;;;28.30;25.53;;;;;;;10.35;100.00;100372.50;5273336;28;20029;-79
2021/12/29 17:53:46;;;;;;;30.80;27.63;;;;;;;10.36;100.00;100387.28;5272880;28;20095;-82
2021/12/29 17:56:19;;;;;;;29.43;26.53;;;;;;;10.36;100.00;100382.03;5271998;28;20407;-84
2021/12/29 17:58:51;;;;;;;32.30;28.93;;;;;;;10.43;100.00;100411.28;5267534;28;20368;-85
2021/12/29 18:01:22;;;;;;;30.30;27.10;;;;;;;10.48;100.00;100421.47;5266714;28;20032;-76
2021/12/29 18:03:54;;;;;;;33.33;29.87;;;;;;;10.49;100.00;100418.72;5273765;28;20029;-78
2021/12/29 18:06:25;;;;;;;33.60;30.00;;;;;;;10.51;100.00;100427.34;5273181;28;20069;-78
2021/12/29 18:08:56;;;;;;;34.23;30.73;;;;;;;10.53;100.00;100432.47;5270922;28;20020;-77
2021/12/29 18:11:28;;;;;;;35.50;31.77;;;;;;;10.64;100.00;100429.13;5273173;28;20024;-74
2021/12/29 18:14:00;;;;;;;34.77;31.07;;;;;;;10.60;100.00;100436.34;5274156;28;20032;-79
2021/12/29 18:16:32;;;;;;;37.43;33.40;;;;;;;10.51;100.00;100419.47;5272938;28;20505;-81
2021/12/29 18:19:04;;;;;;;37.77;33.77;;;;;;;10.55;100.00;100408.78;5270540;28;20036;-84
2021/12/29 18:21:36;;;;;;;38.90;33.63;;;;;;;10.70;100.00;100426.09;5270586;28;20029;-85
2021/12/29 18:24:08;;;;;;;37.47;33.03;;;;;;;10.75;100.00;100425.81;5273072;28;20102;-80
2021/12/29 18:26:42;;;;;;;39.53;35.27;;;;;;;10.74;100.00;100442.44;5273721;28;20032;-88
2021/12/29 18:29:14;;;;;;;38.08;33.13;;;;;;;10.75;100.00;100444.16;5273898;28;20104;-80
2021/12/29 18:31:46;;;;;;;41.77;35.80;;;;;;;10.77;100.00;100445.69;5274235;28;20017;-77
2021/12/29 18:34:17;;;;;;;41.57;35.60;;;;;;;10.77;100.00;100457.94;5273883;28;20028;-77
2021/12/29 18:36:48;;;;;;;41.50;35.53;;;;;;;10.74;100.00;100442.44;5275067;28;20028;-82
2021/12/29 18:39:20;;;;;;;38.87;33.37;;;;;;;10.78;100.00;100472.75;5265302;28;20025;-80
2021/12/29 18:41:51;;;;;;;42.53;37.57;;;;;;;10.91;100.00;100485.84;5257662;28;20102;-82
2021/12/29 18:44:26;;;;;;;47.57;37.10;;;;;;;10.84;100.00;100474.13;5272807;28;20033;-78
2021/12/29 18:46:57;;;;;;;;;;;;;;;10.98;100.00;100486.25;5273831;28;20220;-85
2021/12/29 18:49:29;;;;;;;40.17;32.93;;;;;;;11.00;100.00;100474.75;5264975;28;19923;-82
2021/12/29 18:52:00;;;;;;;43.60;35.63;;;;;;;10.98;100.00;100483.66;5253139;28;20028;-75
2021/12/29 18:54:31;;;;;;;46.13;33.80;;;;;;;11.03;100.00;100492.03;5254025;28;20040;-75
2021/12/29 18:57:04;;;;;;;40.87;33.87;;;;;;;11.01;100.00;100486.09;5256355;28;20124;-86
2021/12/29 18:59:35;;;;;;;39.10;32.43;;;;;;;10.99;100.00;100493.19;5265337;28;20040;-80
2021/12/29 19:02:06;;;;;;;42.37;33.20;;;;;;;11.00;100.00;100484.38;5260209;28;20459;-77
2021/12/29 19:04:38;;;;;;;43.63;30.43;;;;;;;11.07;100.00;100506.63;5252077;28;20048;-78
2021/12/29 19:07:12;;;;;;;40.63;28.70;;;;;;;11.11;100.00;100502.00;5268552;28;20023;-80
2021/12/29 19:09:43;;;;;;;39.00;28.97;;;;;;;11.13;100.00;100502.75;5271499;28;20055;-86
2021/12/29 19:12:14;;;;;;;38.03;26.53;;;;;;;11.23;100.00;100521.31;5272768;28;20037;-90
2021/12/29 19:14:47;;;;;;;36.37;24.30;;;;;;;11.18;100.00;100521.63;5272474;28;20028;-76
2021/12/29 19:17:18;;;;;;;37.20;23.40;;;;;;;11.28;100.00;100527.06;5260155;28;20461;-76
2021/12/29 19:19:49;;;;;;;33.77;19.87;;;;;;;11.26;100.00;100542.06;5271626;28;20097;-78
2021/12/29 19:22:21;;;;;;;28.53;19.60;;;;;;;11.28;100.00;100558.53;5269646;28;20494;-80
2021/12/29 19:24:52;;;;;;;41.23;19.40;;;;;;;11.20;100.00;100542.50;5264760;28;20028;-82
2021/12/29 19:27:23;;;;;;;33.03;18.33;;;;;;;11.25;100.00;100546.50;5272011;28;20028;-84
2021/12/29 19:29:54;;;;;;;31.97;16.63;;;;;;;11.28;100.00;100550.66;5272129;28;20621;-80
2021/12/29 19:32:26;;;;;;;30.53;17.90;;;;;;;11.20;100.00;100545.09;5260050;28;20025;-78
2021/12/29 19:34:57;;;;;;;29.87;16.47;;;;;;;11.26;100.00;100568.28;5275253;28;20020;-77
2021/12/29 19:37:29;;;;;;;34.73;16.67;;;;;;;11.27;100.00;100567.34;5280435;28;20553;-80
2021/12/29 19:40:00;;;;;;;32.43;14.77;;;;;;;11.11;100.00;100557.06;5276699;28;20162;-81
2021/12/29 19:42:32;;;;;;;30.67;15.43;;;;;;;11.14;100.00;100562.09;5280683;28;20024;-83
2021/12/29 19:45:06;;;;;;;32.57;14.77;;;;;;;11.06;100.00;100557.38;5286723;28;20035;-78
2021/12/29 19:47:39;;;;;;;29.17;15.13;;;;;;;11.15;100.00;100579.50;5274476;28;20475;-82
2021/12/29 19:50:12;;;;;;;28.13;14.13;;;;;;;11.10;100.00;100595.50;5275245;28;20713;-83
2021/12/29 19:52:45;;;;;;;30.07;14.63;;;;;;;11.06;100.00;100594.06;5273030;28;20022;-78
2021/12/29 19:55:17;;;;;;;33.03;14.93;;;;;;;11.06;100.00;100588.81;5271366;28;20033;-79
2021/12/29 19:57:48;;;;;;;35.60;16.03;;;;;;;11.09;100.00;100617.44;5272671;28;20028;-80
2021/12/29 20:00:21;;;;;;;33.77;16.33;;;;;;;11.08;100.00;100634.09;5262155;28;20099;-86
2021/12/29 20:02:53;;;;;;;30.30;17.13;;;;;;;11.05;100.00;100621.19;5264072;28;20020;-79
2021/12/29 20:05:25;;;;;;;33.27;17.10;;;;;;;10.99;100.00;100624.22;5261431;28;20437;-82
2021/12/29 20:08:00;;;;;;;34.57;17.77;;;;;;;11.06;100.00;100635.13;5252760;28;20013;-81
2021/12/29 20:10:32;;;;;;;39.87;16.87;;;;;;;11.04;100.00;100648.34;5250510;28;20071;-79
2021/12/29 20:13:04;;;;;;;39.00;18.53;;;;;;;11.04;100.00;100644.88;5270880;28;20024;-79
2021/12/29 20:15:36;;;;;;;33.70;15.70;;;;;;;11.06;100.00;100674.44;5272724;28;20414;-75
2021/12/29 20:18:08;;;;;;;41.37;17.97;;;;;;;11.05;100.00;100675.41;5270583;28;20021;-81
2021/12/29 20:20:39;;;;;;;40.10;16.67;;;;;;;11.07;100.00;100658.63;5271589;28;20041;-77
2021/12/29 20:23:12;;;;;;;33.80;13.87;;;;;;;10.97;100.00;100662.78;5256699;28;20233;-83
2021/12/29 20:25:43;;;;;;;38.77;14.57;;;;;;;11.08;100.00;100680.44;5269616;28;20024;-80
2021/12/29 20:28:15;;;;;;;35.90;14.13;;;;;;;11.04;100.00;100684.19;5271501;28;20085;-80
2021/12/29 20:30:48;;;;;;;31.10;14.17;;;;;;;11.07;100.00;100690.06;5271604;28;20039;-83
2021/12/29 20:33:21;;;;;;;31.20;12.17;;;;;;;11.07;100.00;100687.44;5267392;28;20094;-78
2021/12/29 20:35:53;;;;;;;36.10;11.90;;;;;;;11.09;100.00;100697.84;5270324;28;20021;-80
2021/12/29 20:38:24;;;;;;;34.23;12.40;;;;;;;11.10;100.00;100702.16;5271092;28;20099;-81
2021/12/29 20:40:56;;;;;;;36.23;13.80;;;;;;;11.09;100.00;100709.16;5270698;28;20028;-81
2021/12/29 20:43:27;;;;;;;38.40;14.07;;;;;;;11.03;100.00;100704.31;5269785;28;20445;-77
2021/12/29 20:46:00;;;;;;;35.60;13.20;;;;;;;11.11;100.00;100711.69;5270560;28;20056;-80
2021/12/29 20:48:36;;;;;;;38.47;15.30;;;;;;;11.15;100.00;100720.19;5270646;28;20028;-80
2021/12/29 20:51:08;;;;;;;39.00;15.67;;;;;;;11.18;100.00;100726.09;5269356;28;20372;-77
2021/12/29 20:53:39;;;;;;;43.80;16.63;;;;;;;11.19;100.00;100729.56;5269786;28;20023;-76
2021/12/29 20:56:12;;;;;;;46.80;17.37;;;;;;;11.12;100.00;100729.06;5251687;28;20646;-81
2021/12/29 20:58:43;;;;;;;49.83;17.33;;;;;;;11.12;100.00;100735.16;5263189;28;20035;-85
2021/12/29 21:01:16;;;;;;;38.67;17.43;;;;;;;11.16;100.00;100762.03;5270684;28;20032;-90
2021/12/29 21:03:48;;;;;;;49.83;18.00;;;;;;;11.24;100.00;100754.50;5269554;28;20036;-80